createdAt,value
2023-03-14T00:02:07.057Z,11.04
2023-03-14T00:05:32.731Z,11.03
2023-03-14T00:08:58.514Z,11.03
2023-03-14T00:12:24.477Z,11.01
2023-03-14T00:15:50.574Z,10.97
2023-03-14T00:19:18.496Z,10.94
2023-03-14T00:22:44.268Z,10.92
2023-03-14T00:26:09.561Z,10.90
2023-03-14T00:29:35.689Z,10.88
2023-03-14T00:33:03.223Z,10.89
2023-03-14T00:36:30.327Z,10.89
2023-03-14T00:39:56.787Z,10.91
2023-03-14T00:43:23.727Z,10.94
2023-03-14T00:46:49.469Z,10.94
2023-03-14T00:50:16.159Z,10.94
2023-03-14T00:53:42.310Z,10.94
2023-03-14T00:57:06.221Z,10.96
2023-03-14T01:00:32.034Z,10.97
2023-03-14T01:03:58.378Z,10.96
2023-03-14T01:07:25.622Z,10.96
2023-03-14T01:10:51.221Z,10.94
2023-03-14T01:14:34.494Z,10.93
2023-03-14T01:18:00.314Z,10.94
2023-03-14T01:21:28.941Z,10.96
2023-03-14T01:24:54.826Z,10.97
2023-03-14T01:28:21.123Z,10.93
2023-03-14T01:32:03.927Z,10.88
2023-03-14T01:35:29.639Z,10.85
2023-03-14T01:38:55.634Z,10.83
2023-03-14T01:42:40.444Z,10.83
2023-03-14T01:46:20.058Z,10.82
2023-03-14T01:49:47.771Z,10.80
2023-03-14T01:53:13.537Z,10.79
2023-03-14T01:56:40.453Z,10.79
2023-03-14T02:00:23.090Z,10.80
2023-03-14T02:03:52.322Z,10.81
2023-03-14T02:07:20.912Z,10.81
2023-03-14T02:10:47.717Z,10.81
2023-03-14T02:14:16.606Z,10.81
2023-03-14T02:17:54.418Z,10.81
2023-03-14T02:21:45.394Z,10.81
2023-03-14T02:25:15.344Z,10.80
2023-03-14T02:28:39.124Z,10.80
2023-03-14T02:32:05.286Z,10.81
2023-03-14T02:35:33.696Z,10.82
2023-03-14T02:39:24.793Z,10.82
2023-03-14T02:42:51.217Z,10.82
2023-03-14T02:46:34.459Z,10.80
2023-03-14T02:50:04.652Z,10.75
2023-03-14T02:53:32.567Z,10.72
2023-03-14T02:57:33.392Z,10.67
2023-03-14T03:04:43.418Z,10.55
2023-03-14T03:08:10.094Z,10.50
2023-03-14T03:11:36.253Z,10.44
2023-03-14T03:15:02.838Z,10.40
2023-03-14T03:18:28.750Z,10.34
2023-03-14T03:21:54.803Z,10.30
2023-03-14T03:25:20.728Z,10.26
2023-03-14T03:28:46.551Z,10.22
2023-03-14T03:32:12.589Z,10.19
2023-03-14T03:35:44.329Z,10.14
2023-03-14T03:39:10.064Z,10.11
2023-03-14T03:42:35.805Z,10.07
2023-03-14T03:46:04.534Z,10.02
2023-03-14T03:49:32.052Z,9.97
2023-03-14T03:52:57.695Z,9.91
2023-03-14T03:56:23.468Z,9.86
2023-03-14T03:59:49.121Z,9.80
2023-03-14T04:03:15.250Z,9.73
2023-03-14T04:06:42.961Z,9.66
2023-03-14T04:10:26.762Z,9.57
2023-03-14T04:13:58.354Z,9.47
2023-03-14T04:17:24.636Z,9.37
2023-03-14T04:20:52.506Z,9.27
2023-03-14T04:24:17.628Z,9.16
2023-03-14T04:27:42.125Z,9.07
2023-03-14T04:31:10.682Z,8.98
2023-03-14T04:34:36.489Z,8.88
2023-03-14T04:38:03.944Z,8.79
2023-03-14T04:41:30.495Z,8.70
2023-03-14T04:44:56.565Z,8.61
2023-03-14T04:48:24.471Z,8.52
2023-03-14T04:51:51.760Z,8.44
2023-03-14T04:55:16.047Z,8.37
2023-03-14T04:58:41.969Z,8.31
2023-03-14T05:02:09.012Z,8.24
2023-03-14T05:05:32.938Z,8.20
2023-03-14T05:09:02.498Z,8.17
2023-03-14T05:12:26.384Z,8.16
2023-03-14T05:15:51.698Z,8.13
2023-03-14T05:19:17.813Z,8.13
2023-03-14T05:22:55.559Z,8.15
2023-03-14T05:26:24.196Z,8.15
2023-03-14T05:29:52.792Z,8.18
2023-03-14T05:33:17.085Z,8.21
2023-03-14T05:36:42.874Z,8.21
2023-03-14T05:40:12.554Z,8.24
2023-03-14T05:43:38.573Z,8.27
2023-03-14T05:47:16.232Z,8.33
2023-03-14T05:50:44.875Z,8.38
2023-03-14T05:54:10.573Z,8.44
2023-03-14T05:57:38.951Z,8.50
2023-03-14T06:01:08.114Z,8.59
2023-03-14T06:04:36.425Z,8.68
2023-03-14T06:08:02.158Z,8.78
2023-03-14T06:11:28.131Z,8.85
2023-03-14T06:14:54.913Z,8.92
2023-03-14T06:18:20.566Z,8.97
2023-03-14T06:21:46.607Z,9.03
2023-03-14T06:25:12.379Z,9.11
2023-03-14T06:28:38.430Z,9.22
2023-03-14T06:32:05.586Z,9.33
2023-03-14T06:35:31.374Z,9.41
2023-03-14T06:38:57.414Z,9.49
2023-03-14T06:42:24.038Z,9.64
2023-03-14T06:45:50.066Z,9.84
2023-03-14T06:49:15.936Z,10.04
2023-03-14T06:52:34.276Z,10.20
2023-03-14T06:55:59.994Z,10.31
2023-03-14T06:59:25.823Z,10.40
2023-03-14T07:02:51.590Z,10.49
2023-03-14T07:06:26.616Z,10.62
2023-03-14T07:09:52.791Z,10.75
2023-03-14T07:13:19.853Z,10.85
2023-03-14T07:16:46.210Z,10.89
2023-03-14T07:20:12.866Z,10.93
2023-03-14T07:23:38.909Z,10.97
2023-03-14T07:27:04.787Z,10.98
2023-03-14T07:30:30.515Z,10.99
2023-03-14T07:33:57.282Z,11.03
2023-03-14T07:38:10.258Z,11.08
2023-03-14T07:41:09.999Z,11.13
2023-03-14T07:44:36.185Z,11.16
2023-03-14T07:48:03.135Z,11.21
2023-03-14T07:51:28.857Z,11.26
2023-03-14T07:54:54.511Z,11.26
2023-03-14T07:58:13.623Z,11.30
2023-03-14T08:01:39.288Z,11.37
2023-03-14T08:05:05.097Z,11.46
2023-03-14T08:08:30.867Z,11.61
2023-03-14T08:11:58.724Z,11.83
2023-03-14T08:15:24.793Z,12.07
2023-03-14T08:18:50.928Z,12.31
2023-03-14T08:22:19.363Z,12.52
2023-03-14T08:25:45.708Z,12.75
2023-03-14T08:29:11.473Z,12.89
2023-03-14T08:32:30.175Z,12.94
2023-03-14T08:35:57.424Z,13.06
2023-03-14T08:39:24.351Z,13.18
2023-03-14T08:42:50.050Z,13.27
2023-03-14T08:46:15.824Z,13.38
2023-03-14T08:49:41.881Z,13.48
2023-03-14T08:52:50.500Z,13.61
2023-03-14T08:55:58.769Z,13.70
2023-03-14T08:59:24.497Z,13.81
2023-03-14T09:02:30.140Z,13.94
2023-03-14T09:05:36.551Z,13.99
2023-03-14T09:08:42.033Z,13.99
2023-03-14T09:11:47.843Z,13.98
2023-03-14T09:14:53.644Z,13.95
2023-03-14T09:18:00.014Z,13.94
2023-03-14T09:21:06.492Z,13.89
2023-03-14T09:24:12.316Z,13.82
2023-03-14T09:27:18.013Z,13.85
2023-03-14T09:30:26.349Z,13.97
2023-03-14T09:33:42.233Z,14.09
2023-03-14T09:37:08.570Z,14.23
2023-03-14T09:40:15.738Z,14.31
2023-03-14T09:43:22.759Z,14.34
2023-03-14T09:46:28.357Z,14.36
2023-03-14T09:49:34.664Z,14.34
2023-03-14T09:52:42.645Z,14.28
2023-03-14T09:55:49.429Z,14.21
2023-03-14T09:59:07.826Z,14.13
2023-03-14T10:02:19.268Z,14.15
2023-03-14T10:05:34.247Z,14.36
2023-03-14T10:08:41.896Z,14.67
2023-03-14T10:11:50.697Z,15.02
2023-03-14T10:14:56.335Z,15.18
2023-03-14T10:18:02.785Z,15.38
2023-03-14T10:21:19.644Z,15.55
2023-03-14T10:24:31.516Z,15.72
2023-03-14T10:27:47.116Z,15.84
2023-03-14T10:30:55.599Z,15.85
2023-03-14T10:34:02.246Z,15.95
2023-03-14T10:37:23.527Z,15.99
2023-03-14T10:40:30.972Z,15.93
2023-03-14T10:43:38.567Z,15.86
2023-03-14T10:46:44.222Z,15.77
2023-03-14T10:50:24.553Z,15.69
2023-03-14T10:53:35.101Z,15.65
2023-03-14T10:56:40.611Z,15.50
2023-03-14T10:59:50.067Z,15.28
2023-03-14T11:03:06.787Z,15.06
2023-03-14T11:06:16.841Z,14.95
2023-03-14T11:09:31.808Z,14.98
2023-03-14T11:12:44.265Z,14.91
2023-03-14T11:15:56.129Z,14.89
2023-03-14T11:19:17.193Z,14.84
2023-03-14T11:22:34.305Z,14.68
2023-03-14T11:25:45.455Z,14.48
2023-03-14T11:28:52.173Z,14.40
2023-03-14T11:32:04.074Z,14.48
2023-03-14T11:35:17.820Z,14.64
2023-03-14T11:38:39.616Z,14.85
2023-03-14T11:41:46.477Z,15.03
2023-03-14T11:44:52.142Z,15.12
2023-03-14T11:48:06.596Z,15.32
2023-03-14T11:51:16.099Z,15.61
2023-03-14T11:54:27.387Z,15.86
2023-03-14T11:57:33.008Z,15.93
2023-03-14T12:00:40.919Z,15.80
2023-03-14T12:03:52.396Z,15.61
2023-03-14T12:06:58.952Z,15.46
2023-03-14T12:10:05.415Z,15.43
2023-03-14T12:13:11.929Z,15.43
2023-03-14T12:16:29.263Z,15.54
2023-03-14T12:19:41.872Z,15.50
2023-03-14T12:23:13.316Z,15.51
2023-03-14T12:26:23.338Z,15.73
2023-03-14T12:29:29.318Z,16.01
2023-03-14T12:32:38.253Z,16.12
2023-03-14T12:36:32.209Z,15.97
2023-03-14T12:39:37.142Z,15.82
2023-03-14T12:42:52.442Z,15.72
2023-03-14T12:46:10.828Z,15.52
2023-03-14T12:49:16.440Z,15.39
2023-03-14T12:52:34.073Z,15.21
2023-03-14T12:55:42.580Z,15.04
2023-03-14T12:59:02.833Z,14.98
2023-03-14T13:02:23.399Z,14.98
2023-03-14T13:05:29.173Z,15.16
2023-03-14T13:08:40.613Z,15.32
2023-03-14T13:11:46.492Z,15.59
2023-03-14T13:14:54.818Z,15.84
2023-03-14T13:18:11.315Z,16.07
2023-03-14T13:21:18.734Z,16.51
2023-03-14T13:24:44.626Z,16.91
2023-03-14T13:28:00.611Z,16.87
2023-03-14T13:31:07.437Z,16.66
2023-03-14T13:34:13.359Z,16.45
2023-03-14T13:37:21.433Z,16.22
2023-03-14T13:40:31.626Z,15.98
2023-03-14T13:43:38.483Z,15.90
2023-03-14T13:46:43.981Z,15.91
2023-03-14T13:49:50.980Z,15.78
2023-03-14T13:52:59.801Z,15.62
2023-03-14T13:56:05.916Z,15.53
2023-03-14T13:59:28.279Z,15.46
2023-03-14T14:02:41.591Z,15.42
2023-03-14T14:05:58.613Z,15.20
2023-03-14T14:09:06.819Z,14.93
2023-03-14T14:12:17.742Z,14.75
2023-03-14T14:15:24.555Z,14.68
2023-03-14T14:18:31.754Z,14.66
2023-03-14T14:21:40.192Z,14.63
2023-03-14T14:24:50.322Z,14.55
2023-03-14T14:28:18.016Z,14.50
2023-03-14T14:31:24.153Z,14.37
2023-03-14T14:34:29.935Z,14.23
2023-03-14T14:37:36.319Z,14.11
2023-03-14T14:40:47.506Z,14.05
2023-03-14T14:44:31.841Z,14.06
2023-03-14T14:47:34.747Z,14.07
2023-03-14T14:51:00.476Z,14.12
2023-03-14T14:54:11.385Z,14.20
2023-03-14T14:57:20.217Z,14.23
2023-03-14T15:00:27.818Z,14.29
2023-03-14T15:03:34.287Z,14.33
2023-03-14T15:06:44.285Z,14.28
2023-03-14T15:09:50.033Z,14.17
2023-03-14T15:13:01.642Z,14.12
2023-03-14T15:16:12.976Z,14.05
2023-03-14T15:19:24.811Z,13.99
2023-03-14T15:22:31.126Z,13.97
2023-03-14T15:25:54.658Z,13.96
2023-03-14T15:29:04.007Z,13.93
2023-03-14T15:32:11.874Z,14.08
2023-03-14T15:35:20.501Z,14.43
2023-03-14T15:38:27.236Z,14.65
2023-03-14T15:41:36.148Z,14.67
2023-03-14T15:44:44.505Z,14.59
2023-03-14T15:47:50.361Z,14.38
2023-03-14T15:50:56.097Z,14.08
2023-03-14T15:54:05.099Z,13.79
2023-03-14T15:57:12.079Z,13.53
2023-03-14T16:00:29.139Z,13.34
2023-03-14T16:03:45.238Z,13.14
2023-03-14T16:06:51.954Z,13.00
2023-03-14T16:09:57.764Z,12.86
2023-03-14T16:13:12.495Z,12.73
2023-03-14T16:16:18.329Z,12.61
2023-03-14T16:19:23.823Z,12.54
2023-03-14T16:22:30.515Z,12.47
2023-03-14T16:25:40.425Z,12.37
2023-03-14T16:28:46.732Z,12.29
2023-03-14T16:31:52.415Z,12.26
2023-03-14T16:34:58.224Z,12.25
2023-03-14T16:38:04.164Z,12.24
2023-03-14T16:41:12.495Z,12.18
2023-03-14T16:44:18.112Z,12.06
2023-03-14T16:47:23.560Z,11.94
2023-03-14T16:50:28.864Z,11.83
2023-03-14T16:53:37.576Z,11.71
2023-03-14T16:56:44.340Z,11.60
2023-03-14T16:59:52.659Z,11.53
2023-03-14T17:03:10.792Z,11.50
2023-03-14T17:06:18.983Z,11.48
2023-03-14T17:09:28.674Z,11.45
2023-03-14T17:12:36.946Z,11.41
2023-03-14T17:15:45.783Z,11.35
2023-03-14T17:18:51.597Z,11.31
2023-03-14T17:22:09.443Z,11.24
2023-03-14T17:25:22.860Z,11.17
2023-03-14T17:28:28.714Z,11.13
2023-03-14T17:31:41.564Z,11.09
2023-03-14T17:34:49.034Z,11.07
2023-03-14T17:37:55.707Z,11.05
2023-03-14T17:41:02.947Z,11.04
2023-03-14T17:44:12.774Z,11.01
2023-03-14T17:47:21.549Z,10.96
2023-03-14T17:50:29.728Z,10.94
2023-03-14T17:53:37.546Z,10.94
2023-03-14T17:56:52.873Z,10.92
2023-03-14T18:00:08.476Z,10.90
2023-03-14T18:03:14.718Z,10.87
2023-03-14T18:06:23.819Z,10.86
2023-03-14T18:09:49.459Z,10.82
2023-03-14T18:13:00.646Z,10.74
2023-03-14T18:16:08.374Z,10.69
2023-03-14T18:19:14.273Z,10.63
2023-03-14T18:22:21.661Z,10.59
2023-03-14T18:25:45.748Z,10.55
2023-03-14T18:28:51.383Z,10.51
2023-03-14T18:31:58.372Z,10.44
2023-03-14T18:35:04.206Z,10.37
2023-03-14T18:38:09.920Z,10.28
2023-03-14T18:41:16.155Z,10.20
2023-03-14T18:44:21.858Z,10.12
2023-03-14T18:47:27.995Z,10.07
2023-03-14T18:50:33.865Z,10.04
2023-03-14T18:53:39.886Z,10.03
2023-03-14T18:57:05.884Z,10.03
2023-03-14T19:00:16.278Z,10.00
2023-03-14T19:03:31.739Z,9.98
2023-03-14T19:06:37.170Z,9.96
2023-03-14T19:09:45.418Z,9.96
2023-03-14T19:12:59.932Z,9.97
2023-03-14T19:16:07.088Z,9.97
2023-03-14T19:19:32.859Z,9.97
2023-03-14T19:22:45.851Z,9.69
2023-03-14T19:26:02.963Z,8.08
2023-03-14T19:29:18.430Z,6.67
2023-03-14T19:32:45.354Z,5.70
2023-03-14T19:36:00.234Z,4.81
2023-03-14T19:39:17.930Z,4.14
2023-03-14T19:42:43.465Z,3.59
2023-03-14T19:45:49.216Z,3.21
2023-03-14T19:49:00.160Z,2.80
2023-03-14T19:52:14.694Z,2.36
2023-03-14T19:55:40.212Z,1.97
2023-03-14T19:59:10.389Z,1.64
2023-03-14T20:02:20.161Z,1.35
2023-03-14T20:05:34.718Z,1.11
2023-03-14T20:08:57.575Z,0.88
2023-03-14T20:12:24.177Z,0.68
2023-03-14T20:15:30.284Z,0.56
2023-03-14T20:18:59.105Z,0.30
2023-03-14T20:22:16.420Z,0.09
2023-03-14T20:25:45.327Z,-0.00
2023-03-14T20:29:03.919Z,0.01
2023-03-14T20:32:16.052Z,0.04
2023-03-14T20:35:25.872Z,0.04
2023-03-14T20:38:51.995Z,-0.02
2023-03-14T20:42:09.385Z,-0.13
2023-03-14T20:45:36.024Z,-0.23
2023-03-14T20:49:18.886Z,-0.34
2023-03-14T20:52:28.299Z,-0.41
2023-03-14T20:55:57.201Z,-0.45
2023-03-14T21:00:03.318Z,-0.48
2023-03-14T21:03:25.505Z,-0.48
2023-03-14T21:07:01.362Z,-0.46
2023-03-14T21:10:47.161Z,-0.42
2023-03-14T21:14:13.748Z,-0.36
2023-03-14T21:17:42.765Z,-0.31
2023-03-14T21:21:11.227Z,-0.25
2023-03-14T21:24:21.031Z,-0.18
2023-03-14T21:27:39.052Z,-0.12
2023-03-14T21:31:04.569Z,-0.05
2023-03-14T21:34:18.001Z,0.00
2023-03-14T21:37:32.064Z,0.05
2023-03-14T21:40:50.101Z,0.10
2023-03-14T21:44:06.003Z,0.15
2023-03-14T21:47:17.106Z,0.18
2023-03-14T21:50:32.077Z,0.20
2023-03-14T21:53:48.138Z,0.21
2023-03-14T21:57:02.937Z,0.19
2023-03-14T22:00:17.033Z,0.19
2023-03-14T22:03:28.246Z,0.21
2023-03-14T22:06:38.842Z,0.23
2023-03-14T22:09:49.444Z,0.26
2023-03-14T22:12:58.074Z,0.28
2023-03-14T22:16:07.169Z,0.31
2023-03-14T22:19:15.633Z,0.33
2023-03-14T22:22:28.657Z,0.35
2023-03-14T22:25:54.124Z,0.37
2023-03-14T22:29:18.626Z,0.38
2023-03-14T22:32:33.928Z,0.39
2023-03-14T22:35:42.521Z,0.41
2023-03-14T22:38:48.066Z,0.40
2023-03-14T22:41:53.747Z,0.39
2023-03-14T22:44:59.243Z,0.36
2023-03-14T22:48:05.036Z,0.34
2023-03-14T22:51:24.492Z,0.33
2023-03-14T22:54:35.928Z,0.32
2023-03-14T22:57:46.636Z,0.31
2023-03-14T23:00:54.717Z,0.32
2023-03-14T23:04:02.179Z,0.32
2023-03-14T23:07:18.135Z,0.32
2023-03-14T23:10:44.409Z,0.33
2023-03-14T23:13:50.937Z,0.33
2023-03-14T23:17:16.912Z,0.32
2023-03-14T23:20:26.311Z,0.32
2023-03-14T23:46:26.358Z,0.33
2023-03-14T23:49:36.642Z,0.34
2023-03-14T23:52:53.130Z,0.34
2023-03-14T23:56:19.066Z,0.35
2023-03-14T23:59:30.039Z,0.36
